Portada
METAR-TAF:

METAR-TAF

Aeropuertos :

Ghriss, Argelia

latitud: 35-12N, longitud: 000-08E, altitud: 514 m

Observación

El informe se hizo hace 33 minutos, a las 04:00 UTC
Viento 10 kt del norte-noreste
Temperatura 22°C
Humedad 65%
Presión 1013 hPa
Visibilidad 10 km o más
Escasas nubes a una altura de 3300 ft

METAR: DAOV 210400Z 03010KT 9999 FEW033 22/15 Q1013

Hora: 05:33 (04:33 UTC)

Pronóstico

El informe se hizo hace 5 horas y 33 minutos, a las 23:00 UTC
Pronóstico válido del 21 a las 00 UTC al 21 a las 09 UTC
Viento 2 kt con dirección variable
Visibilidad 10 km o más
Escasas nubes a una altura de 3300 ft
Nubes dispersas a una altura de 23300 ft

TAF: DAOV 202300Z 2100/2109 VRB02KT 9999 FEW033 SCT233

Observaciones y pronósticos meteorológicos de más de 4000 aeropuertos (mensajes METAR y TAF).

Los puntos amarillos y rojos representan las estaciones disponibles.

Ponga el ratón en el punto deseado para ver el nombre de la estación.

Haga clic para ver las observaciones y los pronósticos meteorológicos.

Para cambiar el mapa : haga clic en los botones verdes con una cruz de color negro para hacer un zoom, en el botón verde con un guión para alejar o en las flechas verdes para mapas adyacentes.


METAR-TAF: